createdAt,value
2022-12-18T00:01:32.281Z,106.97
2022-12-18T00:03:59.459Z,114.10
2022-12-18T00:06:28.819Z,111.32
2022-12-18T00:08:56.884Z,104.25
2022-12-18T00:11:28.487Z,98.88
2022-12-18T00:13:57.241Z,115.68
2022-12-18T00:16:25.850Z,99.97
2022-12-18T00:18:54.621Z,99.35
2022-12-18T00:21:21.896Z,95.55
2022-12-18T00:23:50.753Z,89.63
2022-12-18T00:26:29.302Z,109.05
2022-12-18T00:28:58.684Z,90.30
2022-12-18T00:31:28.274Z,81.63
2022-12-18T00:33:56.668Z,83.18
2022-12-18T00:36:26.707Z,82.47
2022-12-18T00:38:55.513Z,88.05
2022-12-18T00:41:41.658Z,79.55
2022-12-18T00:44:10.476Z,86.07
2022-12-18T00:46:37.414Z,84.22
2022-12-18T00:49:04.294Z,93.20
2022-12-18T00:51:31.688Z,84.10
2022-12-18T00:53:58.802Z,91.65
2022-12-18T00:56:25.971Z,91.03
2022-12-18T00:58:52.957Z,92.57
2022-12-18T01:01:20.777Z,92.93
2022-12-18T01:03:47.703Z,85.85
2022-12-18T01:06:18.470Z,89.75
2022-12-18T01:08:48.048Z,93.80
2022-12-18T01:11:17.789Z,88.80
2022-12-18T01:13:47.321Z,90.55
2022-12-18T01:16:18.339Z,87.68
2022-12-18T01:18:45.821Z,94.47
2022-12-18T01:21:16.969Z,98.28
2022-12-18T01:23:45.836Z,90.57
2022-12-18T01:26:15.320Z,96.25
2022-12-18T01:28:42.655Z,91.22
2022-12-18T01:31:26.185Z,93.10
2022-12-18T01:33:53.693Z,101.88
2022-12-18T01:36:26.162Z,103.47
2022-12-18T01:38:53.472Z,93.38
2022-12-18T01:41:23.300Z,92.85
2022-12-18T01:43:53.714Z,98.25
2022-12-18T01:46:25.122Z,92.60
2022-12-18T01:48:55.904Z,101.30
2022-12-18T01:51:26.559Z,92.07
2022-12-18T01:53:53.378Z,93.70
2022-12-18T01:56:23.139Z,94.88
2022-12-18T01:59:04.497Z,97.65
2022-12-18T02:01:32.876Z,90.30
2022-12-18T02:04:23.561Z,89.53
2022-12-18T02:06:59.488Z,90.25
2022-12-18T02:09:34.858Z,83.38
2022-12-18T02:12:20.648Z,87.07
2022-12-18T02:14:59.749Z,85.00
2022-12-18T02:17:57.731Z,85.65
2022-12-18T02:20:35.974Z,86.78
2022-12-18T02:23:30.699Z,85.38
2022-12-18T02:26:14.514Z,85.57
2022-12-18T02:28:57.845Z,83.40
2022-12-18T02:31:31.716Z,85.05
2022-12-18T02:34:03.449Z,93.80
2022-12-18T02:38:59.862Z,88.22
2022-12-18T02:41:27.319Z,83.78
2022-12-18T02:44:00.770Z,86.07
2022-12-18T02:46:30.651Z,86.18
2022-12-18T02:49:07.349Z,84.60
2022-12-18T02:51:42.735Z,85.80
2022-12-18T02:54:24.429Z,85.55
2022-12-18T02:56:57.796Z,79.07
2022-12-18T02:59:50.706Z,78.97
2022-12-18T03:02:23.860Z,82.90
2022-12-18T03:05:14.104Z,83.65
2022-12-18T03:07:47.412Z,77.03
2022-12-18T03:10:20.448Z,84.00
2022-12-18T03:12:57.277Z,87.05
2022-12-18T03:15:35.348Z,84.18
2022-12-18T03:18:14.198Z,85.63
2022-12-18T03:20:45.626Z,79.30
2022-12-18T03:23:16.760Z,82.00
2022-12-18T03:25:45.678Z,79.97
2022-12-18T03:28:17.452Z,81.30
2022-12-18T03:33:32.688Z,73.78
2022-12-18T03:35:59.762Z,83.07
2022-12-18T03:38:28.741Z,82.88
2022-12-18T03:41:27.466Z,76.88
2022-12-18T03:44:02.718Z,80.30
2022-12-18T03:46:43.046Z,83.25
2022-12-18T03:49:36.673Z,79.93
2022-12-18T03:52:18.485Z,79.07
2022-12-18T03:54:46.498Z,78.30
2022-12-18T03:57:20.266Z,80.47
2022-12-18T03:59:52.404Z,78.28
2022-12-18T04:02:20.418Z,79.53
2022-12-18T04:04:58.612Z,79.22
2022-12-18T04:07:27.907Z,75.82
2022-12-18T04:09:58.082Z,70.20
2022-12-18T04:12:27.214Z,79.10
2022-12-18T04:14:53.920Z,78.50
2022-12-18T04:17:23.440Z,75.47
2022-12-18T04:19:50.222Z,81.00
2022-12-18T04:22:16.911Z,71.35
2022-12-18T04:24:43.630Z,73.95
2022-12-18T04:27:10.325Z,80.45
2022-12-18T04:29:39.349Z,93.28
2022-12-18T04:32:06.296Z,99.65
2022-12-18T04:34:35.425Z,100.18
2022-12-18T04:37:02.235Z,90.78
2022-12-18T04:39:31.469Z,88.05
2022-12-18T04:41:58.187Z,88.10
2022-12-18T04:44:27.078Z,83.43
2022-12-18T04:46:56.837Z,89.53
2022-12-18T04:49:23.559Z,102.00
2022-12-18T04:51:54.958Z,91.45
2022-12-18T04:54:22.188Z,84.30
2022-12-18T04:56:49.484Z,88.85
2022-12-18T04:59:16.259Z,86.43
2022-12-18T05:01:45.433Z,83.15
2022-12-18T05:04:12.264Z,78.65
2022-12-18T05:06:43.700Z,83.30
2022-12-18T05:09:10.368Z,76.32
2022-12-18T05:11:37.248Z,80.82
2022-12-18T05:14:03.963Z,82.22
2022-12-18T05:16:30.823Z,71.95
2022-12-18T05:18:57.653Z,78.22
2022-12-18T05:21:24.314Z,79.25
2022-12-18T05:23:51.005Z,74.95
2022-12-18T05:26:19.440Z,74.40
2022-12-18T05:28:49.885Z,74.95
2022-12-18T05:31:16.605Z,75.70
2022-12-18T05:33:44.046Z,71.05
2022-12-18T05:36:13.628Z,77.88
2022-12-18T05:38:43.000Z,70.50
2022-12-18T05:41:10.427Z,63.00
2022-12-18T05:43:39.437Z,67.32
2022-12-18T05:46:20.042Z,68.22
2022-12-18T05:48:51.224Z,66.65
2022-12-18T05:51:23.493Z,59.78
2022-12-18T05:53:53.177Z,63.88
2022-12-18T05:56:22.317Z,66.85
2022-12-18T05:58:53.270Z,58.42
2022-12-18T06:01:27.252Z,65.45
2022-12-18T06:03:54.337Z,60.33
2022-12-18T06:06:26.952Z,58.20
2022-12-18T06:08:55.065Z,56.65
2022-12-18T06:11:27.158Z,60.03
2022-12-18T06:13:59.570Z,58.65
2022-12-18T06:16:28.938Z,58.88
2022-12-18T06:19:04.588Z,63.92
2022-12-18T06:21:32.151Z,61.85
2022-12-18T06:24:03.030Z,58.22
2022-12-18T06:26:29.807Z,62.38
2022-12-18T06:28:58.864Z,56.72
2022-12-18T06:31:26.758Z,57.47
2022-12-18T06:33:53.510Z,66.63
2022-12-18T06:36:23.532Z,56.28
2022-12-18T06:38:50.404Z,56.55
2022-12-18T06:41:19.215Z,57.22
2022-12-18T06:43:48.116Z,55.85
2022-12-18T06:46:17.172Z,57.08
2022-12-18T06:48:43.916Z,52.47
2022-12-18T06:51:10.628Z,56.85
2022-12-18T06:53:40.268Z,58.38
2022-12-18T06:56:10.590Z,58.10
2022-12-18T06:58:38.790Z,55.88
2022-12-18T07:01:07.487Z,57.03
2022-12-18T07:03:37.070Z,53.50
2022-12-18T07:06:04.372Z,56.22
2022-12-18T07:08:32.151Z,55.97
2022-12-18T07:10:58.954Z,52.33
2022-12-18T07:13:25.610Z,55.05
2022-12-18T07:15:54.696Z,58.42
2022-12-18T07:18:21.427Z,61.45
2022-12-18T07:20:48.205Z,52.72
2022-12-18T07:23:15.736Z,52.30
2022-12-18T07:25:42.559Z,50.05
2022-12-18T07:28:14.139Z,51.47
2022-12-18T07:30:43.832Z,50.53
2022-12-18T07:33:12.714Z,48.47
2022-12-18T07:35:39.728Z,52.60
2022-12-18T07:38:06.447Z,43.17
2022-12-18T07:40:35.537Z,46.90
2022-12-18T07:43:02.401Z,47.08
2022-12-18T07:45:31.400Z,43.97
2022-12-18T07:48:00.684Z,45.72
2022-12-18T07:50:29.576Z,44.00
2022-12-18T07:52:58.684Z,44.30
2022-12-18T07:55:27.594Z,44.72
2022-12-18T07:58:00.989Z,41.22
2022-12-18T08:00:28.125Z,43.95
2022-12-18T08:02:57.114Z,38.97
2022-12-18T08:05:24.193Z,43.38
2022-12-18T08:07:50.986Z,41.75
2022-12-18T08:10:17.837Z,38.65
2022-12-18T08:12:44.689Z,39.70
2022-12-18T08:15:11.627Z,41.38
2022-12-18T08:17:40.990Z,40.35
2022-12-18T08:20:10.598Z,38.53
2022-12-18T08:22:40.581Z,40.13
2022-12-18T08:25:07.898Z,37.78
2022-12-18T08:27:34.746Z,40.60
2022-12-18T08:30:01.563Z,33.72
2022-12-18T08:32:28.949Z,38.53
2022-12-18T08:34:55.795Z,39.25
2022-12-18T08:37:25.087Z,39.80
2022-12-18T08:39:51.839Z,39.28
2022-12-18T08:42:36.953Z,36.30
2022-12-18T08:45:04.825Z,36.42
2022-12-18T08:47:33.905Z,40.13
2022-12-18T08:50:00.631Z,37.67
2022-12-18T08:52:27.350Z,33.60
2022-12-18T08:54:56.249Z,38.08
2022-12-18T08:57:23.030Z,37.40
2022-12-18T08:59:49.979Z,40.38
2022-12-18T09:02:16.907Z,38.53
2022-12-18T09:04:44.990Z,39.15
2022-12-18T09:07:13.195Z,37.88
2022-12-18T09:09:39.854Z,37.88
2022-12-18T09:12:06.610Z,35.85
2022-12-18T09:14:33.364Z,36.97
2022-12-18T09:17:00.186Z,37.15
2022-12-18T09:19:26.986Z,36.40
2022-12-18T09:21:53.724Z,39.00
2022-12-18T09:24:22.595Z,34.45
2022-12-18T09:26:51.571Z,36.42
2022-12-18T09:29:21.601Z,33.35
2022-12-18T09:31:48.943Z,35.72
2022-12-18T09:34:15.682Z,36.97
2022-12-18T09:36:42.490Z,36.83
2022-12-18T09:39:10.467Z,36.97
2022-12-18T09:41:46.095Z,38.95
2022-12-18T09:44:28.091Z,34.25
2022-12-18T09:46:59.159Z,39.15
2022-12-18T09:49:28.726Z,39.45
2022-12-18T09:52:23.463Z,39.53
2022-12-18T09:55:00.246Z,36.22
2022-12-18T09:57:27.496Z,36.05
2022-12-18T10:00:02.896Z,39.05
2022-12-18T10:02:32.546Z,37.05
2022-12-18T10:05:13.394Z,36.92
2022-12-18T10:08:07.506Z,34.15
2022-12-18T10:10:50.536Z,33.13
2022-12-18T10:13:26.785Z,35.78
2022-12-18T10:16:18.179Z,33.03
2022-12-18T10:19:12.441Z,32.15
2022-12-18T10:21:50.541Z,34.60
2022-12-18T10:24:24.876Z,38.45
2022-12-18T10:26:53.923Z,33.40
2022-12-18T10:29:22.929Z,38.35
2022-12-18T10:31:49.617Z,31.85
2022-12-18T10:34:16.374Z,38.05
2022-12-18T10:36:43.630Z,33.97
2022-12-18T10:39:24.807Z,35.13
2022-12-18T10:41:52.759Z,35.25
2022-12-18T10:44:21.210Z,32.90
2022-12-18T10:46:51.260Z,31.92
2022-12-18T10:49:30.869Z,33.55
2022-12-18T10:52:24.367Z,33.83
2022-12-18T10:54:53.804Z,38.50
2022-12-18T10:57:34.494Z,29.98
2022-12-18T11:00:21.069Z,34.40
2022-12-18T11:02:48.091Z,32.03
2022-12-18T11:05:30.852Z,32.95
2022-12-18T11:07:58.940Z,32.72
2022-12-18T11:10:37.826Z,34.67
2022-12-18T11:13:18.802Z,32.58
2022-12-18T11:15:46.378Z,31.10
2022-12-18T11:18:27.389Z,31.80
2022-12-18T11:21:07.158Z,31.70
2022-12-18T11:23:35.599Z,31.23
2022-12-18T11:26:04.169Z,31.00
2022-12-18T11:28:42.619Z,31.95
2022-12-18T11:31:32.748Z,35.22
2022-12-18T11:34:28.168Z,32.88
2022-12-18T11:36:54.010Z,30.15
2022-12-18T11:39:32.880Z,29.35
2022-12-18T11:42:30.621Z,29.85
2022-12-18T11:45:21.779Z,28.20
2022-12-18T11:48:08.227Z,30.87
2022-12-18T11:50:49.639Z,28.92
2022-12-18T11:53:16.786Z,30.27
2022-12-18T11:56:01.469Z,28.83
2022-12-18T11:58:40.120Z,29.60
2022-12-18T12:01:28.694Z,32.40
2022-12-18T12:03:58.521Z,29.58
2022-12-18T12:06:42.101Z,28.42
2022-12-18T12:09:16.481Z,29.15
2022-12-18T12:11:55.713Z,28.38
2022-12-18T12:14:55.255Z,31.40
2022-12-18T12:17:31.667Z,31.63
2022-12-18T12:20:33.582Z,31.13
2022-12-18T12:23:35.898Z,32.92
2022-12-18T12:26:16.516Z,30.60
2022-12-18T12:29:21.143Z,29.08
2022-12-18T12:32:12.588Z,33.58
2022-12-18T12:35:15.335Z,28.97
2022-12-18T12:38:11.297Z,30.45
2022-12-18T12:41:04.350Z,31.33
2022-12-18T12:43:50.397Z,29.30
2022-12-18T12:46:22.383Z,29.35
2022-12-18T12:51:29.120Z,31.05
2022-12-18T12:53:58.477Z,29.40
2022-12-18T12:56:32.574Z,29.73
2022-12-18T12:59:26.128Z,31.70
2022-12-18T13:01:58.875Z,33.33
2022-12-18T13:04:33.863Z,27.90
2022-12-18T13:07:27.941Z,28.45
2022-12-18T13:10:28.655Z,31.65
2022-12-18T13:13:10.497Z,30.00
2022-12-18T13:18:16.205Z,30.77
2022-12-18T13:21:14.524Z,29.13
2022-12-18T13:23:42.051Z,29.05
2022-12-18T13:26:11.513Z,32.92
2022-12-18T13:28:47.171Z,30.20
2022-12-18T13:31:42.843Z,31.92
2022-12-18T13:34:32.078Z,29.70
2022-12-18T13:37:32.133Z,29.55
2022-12-18T13:39:59.145Z,37.38
2022-12-18T13:42:58.532Z,35.13
2022-12-18T13:45:44.001Z,34.63
2022-12-18T13:48:25.213Z,29.77
2022-12-18T13:51:11.923Z,31.10
2022-12-18T13:53:49.929Z,32.00
2022-12-18T13:56:24.257Z,30.95
2022-12-18T13:59:17.379Z,29.45
2022-12-18T14:02:06.670Z,30.23
2022-12-18T14:04:38.402Z,28.90
2022-12-18T14:07:07.972Z,32.05
2022-12-18T14:09:42.814Z,29.05
2022-12-18T14:12:38.053Z,30.15
2022-12-18T14:15:07.205Z,33.67
2022-12-18T14:17:37.685Z,28.88
2022-12-18T14:20:04.890Z,27.85
2022-12-18T14:22:34.374Z,30.08
2022-12-18T14:25:24.441Z,31.80
2022-12-18T14:28:10.365Z,30.23
2022-12-18T14:30:38.273Z,31.30
2022-12-18T14:33:13.694Z,29.45
2022-12-18T14:35:54.522Z,29.13
2022-12-18T14:38:27.891Z,30.02
2022-12-18T14:41:12.742Z,29.27
2022-12-18T14:43:42.137Z,28.65
2022-12-18T14:46:38.264Z,30.20
2022-12-18T14:49:34.333Z,30.85
2022-12-18T14:52:03.488Z,30.60
2022-12-18T14:54:32.671Z,31.05
2022-12-18T14:57:05.516Z,28.30
2022-12-18T14:59:35.341Z,32.05
2022-12-18T15:02:24.849Z,31.13
2022-12-18T15:05:31.300Z,27.10
2022-12-18T15:08:03.749Z,34.22
2022-12-18T15:10:33.155Z,30.20
2022-12-18T15:13:01.456Z,27.48
2022-12-18T15:15:34.502Z,32.22
2022-12-18T15:18:03.775Z,31.75
2022-12-18T15:20:40.507Z,30.10
2022-12-18T15:23:22.620Z,31.27
2022-12-18T15:25:57.435Z,28.08
2022-12-18T15:28:36.335Z,29.95
2022-12-18T15:31:07.751Z,30.92
2022-12-18T15:33:37.820Z,30.73
2022-12-18T15:36:09.377Z,28.48
2022-12-18T15:38:36.353Z,25.70
2022-12-18T15:41:13.128Z,29.80
2022-12-18T15:43:43.402Z,29.83
2022-12-18T15:46:20.248Z,29.73
2022-12-18T15:48:50.020Z,33.83
2022-12-18T15:51:26.972Z,31.35
2022-12-18T15:53:57.171Z,28.65
2022-12-18T15:56:42.838Z,28.60
2022-12-18T15:59:14.492Z,28.35
2022-12-18T16:01:47.766Z,28.33
2022-12-18T16:04:17.133Z,28.63
2022-12-18T16:07:13.171Z,29.85
2022-12-18T16:09:31.149Z,30.73
2022-12-18T16:12:00.465Z,30.65
2022-12-18T16:14:30.127Z,30.02
2022-12-18T16:17:03.302Z,31.48
2022-12-18T16:19:30.362Z,33.75
2022-12-18T16:22:02.655Z,33.80
2022-12-18T16:24:32.085Z,31.17
2022-12-18T16:27:01.020Z,32.65
2022-12-18T16:29:29.349Z,32.05
2022-12-18T16:32:01.063Z,32.70
2022-12-18T16:34:35.424Z,33.15
2022-12-18T16:37:06.278Z,32.60
2022-12-18T16:39:35.293Z,31.08
2022-12-18T16:42:17.148Z,31.88
2022-12-18T16:44:44.633Z,32.33
2022-12-18T16:47:11.799Z,33.60
2022-12-18T16:49:42.801Z,32.38
2022-12-18T16:52:09.537Z,33.72
2022-12-18T16:54:36.794Z,33.05
2022-12-18T16:57:05.424Z,32.75
2022-12-18T16:59:35.271Z,34.15
2022-12-18T17:02:03.001Z,32.88
2022-12-18T17:04:29.794Z,33.33
2022-12-18T17:06:56.505Z,33.05
2022-12-18T17:09:26.227Z,31.83
2022-12-18T17:11:53.764Z,35.35
2022-12-18T17:14:23.169Z,32.83
2022-12-18T17:17:07.319Z,35.97
2022-12-18T17:19:37.442Z,34.15
2022-12-18T17:22:04.941Z,34.10
2022-12-18T17:24:35.123Z,36.67
2022-12-18T17:27:02.914Z,35.00
2022-12-18T17:29:30.109Z,34.72
2022-12-18T17:31:57.225Z,37.45
2022-12-18T17:34:25.428Z,35.40
2022-12-18T17:36:52.465Z,39.80
2022-12-18T17:39:21.044Z,36.45
2022-12-18T17:41:48.921Z,35.63
2022-12-18T17:44:16.618Z,40.95
2022-12-18T17:46:43.899Z,39.90
2022-12-18T17:49:13.879Z,39.83
2022-12-18T17:51:42.772Z,39.17
2022-12-18T17:54:09.689Z,35.85
2022-12-18T17:56:36.508Z,36.63
2022-12-18T17:59:03.343Z,37.78
2022-12-18T18:01:30.141Z,35.70
2022-12-18T18:03:57.064Z,38.90
2022-12-18T18:06:24.290Z,34.25
2022-12-18T18:08:51.613Z,35.00
2022-12-18T18:11:39.249Z,37.50
2022-12-18T18:14:11.386Z,40.90
2022-12-18T18:16:40.567Z,36.30
2022-12-18T18:19:10.824Z,33.60
2022-12-18T18:21:43.421Z,38.33
2022-12-18T18:24:12.678Z,38.63
2022-12-18T18:26:41.606Z,37.70
2022-12-18T18:29:09.187Z,38.38
2022-12-18T18:31:40.816Z,37.15
2022-12-18T18:34:08.704Z,42.70
2022-12-18T18:36:35.487Z,46.45
2022-12-18T18:39:02.378Z,43.30
2022-12-18T18:41:30.579Z,40.92
2022-12-18T18:43:58.402Z,42.35
2022-12-18T18:46:25.939Z,41.10
2022-12-18T18:48:53.190Z,40.22
2022-12-18T18:51:23.752Z,45.20
2022-12-18T18:53:56.124Z,41.10
2022-12-18T18:59:16.615Z,41.55
2022-12-18T19:01:52.626Z,47.33
2022-12-18T19:04:21.708Z,41.30
2022-12-18T19:06:53.352Z,40.00
2022-12-18T19:09:24.179Z,43.53
2022-12-18T19:12:16.455Z,44.15
2022-12-18T19:14:46.344Z,41.78
2022-12-18T19:17:16.274Z,42.15
2022-12-18T19:19:50.922Z,43.78
2022-12-18T19:22:19.844Z,41.58
2022-12-18T19:24:46.748Z,42.97
2022-12-18T19:27:14.797Z,43.33
2022-12-18T19:29:41.491Z,44.20
2022-12-18T19:32:13.023Z,43.67
2022-12-18T19:34:42.000Z,47.45
2022-12-18T19:37:10.207Z,47.15
2022-12-18T19:39:39.105Z,44.60
2022-12-18T19:42:11.312Z,45.08
2022-12-18T19:44:40.505Z,44.63
2022-12-18T19:47:13.490Z,43.25
2022-12-18T19:49:44.929Z,45.13
2022-12-18T19:52:19.944Z,45.97
2022-12-18T19:54:49.868Z,73.75
2022-12-18T19:57:16.618Z,109.82
2022-12-18T19:59:51.728Z,85.47
2022-12-18T20:02:26.239Z,49.22
2022-12-18T20:04:55.977Z,48.50
2022-12-18T20:10:08.931Z,47.75
2022-12-18T20:12:36.125Z,49.42
2022-12-18T20:15:05.866Z,45.70
2022-12-18T20:17:35.447Z,50.47
2022-12-18T20:20:04.972Z,47.85
2022-12-18T20:22:31.908Z,45.47
2022-12-18T20:24:58.714Z,47.78
2022-12-18T20:27:25.500Z,49.58
2022-12-18T20:29:52.188Z,47.30
2022-12-18T20:32:18.919Z,51.60
2022-12-18T20:34:45.658Z,50.95
2022-12-18T20:37:13.142Z,49.65
2022-12-18T20:39:39.835Z,48.78
2022-12-18T20:42:07.343Z,47.35
2022-12-18T20:44:34.095Z,48.78
2022-12-18T20:47:08.853Z,49.60
2022-12-18T20:49:35.708Z,49.05
2022-12-18T20:52:06.068Z,47.88
2022-12-18T20:54:32.869Z,48.58
2022-12-18T20:56:59.669Z,52.05
2022-12-18T20:59:26.461Z,50.75
2022-12-18T21:01:53.531Z,48.50
2022-12-18T21:04:21.706Z,48.35
2022-12-18T21:06:53.397Z,51.75
2022-12-18T21:09:37.332Z,50.10
2022-12-18T21:12:25.818Z,52.20
2022-12-18T21:14:55.148Z,53.58
2022-12-18T21:17:29.597Z,52.15
2022-12-18T21:20:00.637Z,54.72
2022-12-18T21:22:28.242Z,53.88
2022-12-18T21:24:54.961Z,53.25
2022-12-18T21:27:21.801Z,51.10
2022-12-18T21:29:48.525Z,54.90
2022-12-18T21:32:17.250Z,54.38
2022-12-18T21:34:48.099Z,53.05
2022-12-18T21:37:15.316Z,56.95
2022-12-18T21:39:42.005Z,54.83
2022-12-18T21:42:30.238Z,51.92
2022-12-18T21:44:56.956Z,52.40
2022-12-18T21:47:24.013Z,52.25
2022-12-18T21:49:52.815Z,53.92
2022-12-18T21:52:21.633Z,48.97
2022-12-18T21:55:07.876Z,51.33
2022-12-18T21:57:35.786Z,55.17
2022-12-18T22:00:03.038Z,57.13
2022-12-18T22:02:29.882Z,51.65
2022-12-18T22:04:56.795Z,53.55
2022-12-18T22:07:23.877Z,56.58
2022-12-18T22:09:50.539Z,56.28
2022-12-18T22:12:35.450Z,57.17
2022-12-18T22:15:04.409Z,51.05
2022-12-18T22:17:31.373Z,50.63
2022-12-18T22:19:58.145Z,48.58
2022-12-18T22:22:27.274Z,51.67
2022-12-18T22:24:54.033Z,53.28
2022-12-18T22:27:21.013Z,56.15
2022-12-18T22:30:05.811Z,51.38
2022-12-18T22:32:34.978Z,53.00
2022-12-18T22:35:11.590Z,54.03
2022-12-18T22:37:42.205Z,52.85
2022-12-18T22:40:22.247Z,48.45
2022-12-18T22:42:50.906Z,49.30
2022-12-18T22:45:20.062Z,52.70
2022-12-18T22:47:46.818Z,54.50
2022-12-18T22:50:14.544Z,52.92
2022-12-18T22:52:41.613Z,50.83
2022-12-18T22:55:08.776Z,54.47
2022-12-18T22:57:35.484Z,52.53
2022-12-18T23:00:04.374Z,52.40
2022-12-18T23:02:31.305Z,58.63
2022-12-18T23:04:58.239Z,56.72
2022-12-18T23:07:25.160Z,52.58
2022-12-18T23:09:52.424Z,53.17
2022-12-18T23:12:27.689Z,54.30
2022-12-18T23:14:56.660Z,49.67
2022-12-18T23:17:23.542Z,51.70
2022-12-18T23:19:50.260Z,50.92
2022-12-18T23:22:17.549Z,51.45
2022-12-18T23:24:44.267Z,55.83
2022-12-18T23:27:11.979Z,50.85
2022-12-18T23:29:39.836Z,54.70
2022-12-18T23:32:08.832Z,55.30
2022-12-18T23:34:35.534Z,49.05
2022-12-18T23:37:03.703Z,47.47
2022-12-18T23:39:30.746Z,48.88
2022-12-18T23:41:58.732Z,49.40
2022-12-18T23:44:25.681Z,48.10
2022-12-18T23:46:57.574Z,48.60
2022-12-18T23:49:24.396Z,50.58
2022-12-18T23:51:54.139Z,48.35
2022-12-18T23:54:32.755Z,50.33
2022-12-18T23:57:00.725Z,46.50
2022-12-18T23:59:29.972Z,50.90
